createdAt,value
2018-07-24T00:00:40.943Z,7.50
2018-07-24T00:01:40.942Z,8.40
2018-07-24T00:02:40.954Z,6.30
2018-07-24T00:03:40.956Z,6.20
2018-07-24T00:04:40.960Z,6.90
2018-07-24T00:05:40.970Z,7.50
2018-07-24T00:06:41.009Z,8.50
2018-07-24T00:07:40.993Z,9.60
2018-07-24T00:08:40.994Z,6.40
2018-07-24T00:09:40.999Z,6.60
2018-07-24T00:10:41.002Z,7.50
2018-07-24T00:11:41.029Z,5.90
2018-07-24T00:12:41.038Z,8.20
2018-07-24T00:13:41.024Z,6.40
2018-07-24T00:14:41.033Z,6.40
2018-07-24T00:15:41.042Z,7.50
2018-07-24T00:16:41.051Z,5.80
2018-07-24T00:17:41.055Z,8.20
2018-07-24T00:18:41.062Z,6.10
2018-07-24T00:19:41.079Z,6.30
2018-07-24T00:20:41.074Z,5.70
2018-07-24T00:21:41.084Z,6.90
2018-07-24T00:22:41.093Z,6.10
2018-07-24T00:23:41.093Z,7.60
2018-07-24T00:24:41.100Z,5.80
2018-07-24T00:25:41.106Z,6.30
2018-07-24T00:26:41.117Z,7.00
2018-07-24T00:27:41.127Z,4.50
2018-07-24T00:28:41.125Z,6.50
2018-07-24T00:29:41.143Z,6.10
2018-07-24T00:30:41.147Z,7.90
2018-07-24T00:31:41.153Z,4.20
2018-07-24T00:32:41.161Z,5.40
2018-07-24T00:33:41.160Z,6.00
2018-07-24T00:34:41.177Z,4.20
2018-07-24T00:35:41.179Z,4.60
2018-07-24T00:36:41.184Z,5.50
2018-07-24T00:37:41.196Z,4.70
2018-07-24T00:38:41.195Z,4.80
2018-07-24T00:39:41.213Z,4.90
2018-07-24T00:40:41.219Z,4.10
2018-07-24T00:41:41.219Z,4.80
2018-07-24T00:42:41.233Z,5.40
2018-07-24T00:43:41.234Z,4.80
2018-07-24T00:44:41.239Z,4.50
2018-07-24T00:45:41.249Z,6.10
2018-07-24T00:46:41.256Z,5.90
2018-07-24T00:47:41.275Z,5.80
2018-07-24T00:48:41.271Z,5.30
2018-07-24T00:49:41.281Z,4.60
2018-07-24T00:50:41.283Z,4.80
2018-07-24T00:51:41.300Z,4.70
2018-07-24T00:52:41.296Z,5.00
2018-07-24T00:53:41.304Z,4.90
2018-07-24T00:54:41.314Z,4.90
2018-07-24T00:55:41.313Z,4.60
2018-07-24T00:56:41.327Z,5.90
2018-07-24T00:57:41.336Z,4.30
2018-07-24T00:58:41.344Z,4.80
2018-07-24T00:59:41.349Z,5.00
2018-07-24T01:00:41.354Z,4.30
2018-07-24T01:01:41.360Z,4.20
2018-07-24T01:02:41.364Z,5.60
2018-07-24T01:03:41.379Z,3.60
2018-07-24T01:04:41.380Z,12.00
2018-07-24T01:05:41.378Z,4.70
2018-07-24T01:06:41.392Z,6.60
2018-07-24T01:07:41.405Z,3.50
2018-07-24T01:08:41.428Z,4.60
2018-07-24T01:09:41.418Z,6.00
2018-07-24T01:10:41.419Z,4.80
2018-07-24T01:11:41.425Z,5.50
2018-07-24T01:12:41.434Z,5.60
2018-07-24T01:13:41.434Z,4.90
2018-07-24T01:14:41.442Z,4.10
2018-07-24T01:15:41.454Z,5.30
2018-07-24T01:16:41.461Z,6.10
2018-07-24T01:17:41.458Z,6.40
2018-07-24T01:18:41.471Z,4.40
2018-07-24T01:19:41.477Z,6.00
2018-07-24T01:20:41.492Z,5.10
2018-07-24T01:21:41.488Z,4.40
2018-07-24T01:22:41.493Z,8.80
2018-07-24T01:23:41.511Z,5.00
2018-07-24T01:24:41.514Z,7.00
2018-07-24T01:25:41.521Z,5.80
2018-07-24T01:26:41.532Z,7.20
2018-07-24T01:27:41.524Z,4.70
2018-07-24T01:28:41.534Z,4.30
2018-07-24T01:29:41.544Z,5.30
2018-07-24T01:30:41.550Z,5.40
2018-07-24T01:31:41.558Z,5.50
2018-07-24T01:32:41.565Z,5.90
2018-07-24T01:33:41.569Z,5.20
2018-07-24T01:34:41.586Z,5.60
2018-07-24T01:35:41.583Z,7.70
2018-07-24T01:36:41.595Z,6.50
2018-07-24T01:37:41.594Z,5.10
2018-07-24T01:38:41.609Z,6.10
2018-07-24T01:39:41.606Z,5.10
2018-07-24T01:40:41.611Z,8.00
2018-07-24T01:41:41.628Z,8.20
2018-07-24T01:42:41.626Z,6.00
2018-07-24T01:43:41.641Z,5.10
2018-07-24T01:44:41.640Z,4.50
2018-07-24T01:45:41.654Z,4.20
2018-07-24T01:46:41.652Z,5.80
2018-07-24T01:47:41.666Z,5.30
2018-07-24T01:48:41.675Z,5.80
2018-07-24T01:49:41.672Z,4.80
2018-07-24T01:50:41.686Z,5.30
2018-07-24T01:51:41.685Z,5.70
2018-07-24T01:52:41.694Z,5.30
2018-07-24T01:53:41.704Z,7.00
2018-07-24T01:54:41.712Z,7.80
2018-07-24T01:55:41.719Z,5.30
2018-07-24T01:56:41.719Z,5.10
2018-07-24T01:57:41.722Z,6.10
2018-07-24T01:58:41.731Z,5.70
2018-07-24T01:59:41.740Z,5.90
2018-07-24T02:00:41.744Z,5.80
2018-07-24T02:01:41.754Z,5.00
2018-07-24T02:02:41.758Z,7.40
2018-07-24T02:03:41.768Z,5.40
2018-07-24T02:04:41.771Z,6.00
2018-07-24T02:05:41.782Z,4.90
2018-07-24T02:06:41.784Z,5.70
2018-07-24T02:07:41.797Z,4.80
2018-07-24T02:08:41.802Z,4.80
2018-07-24T02:09:41.801Z,5.80
2018-07-24T02:10:41.817Z,4.90
2018-07-24T02:11:41.822Z,7.00
2018-07-24T02:12:41.828Z,6.10
2018-07-24T02:13:41.836Z,5.00
2018-07-24T02:14:41.833Z,5.00
2018-07-24T02:15:41.842Z,5.20
2018-07-24T02:16:41.847Z,5.00
2018-07-24T02:17:41.865Z,5.30
2018-07-24T02:18:41.868Z,4.90
2018-07-24T02:19:41.873Z,5.50
2018-07-24T02:20:41.876Z,4.10
2018-07-24T02:21:41.884Z,7.20
2018-07-24T02:22:41.893Z,5.10
2018-07-24T02:23:41.890Z,5.30
2018-07-24T02:24:41.901Z,5.60
2018-07-24T02:25:41.919Z,6.30
2018-07-24T02:26:41.920Z,6.10
2018-07-24T02:27:41.930Z,4.80
2018-07-24T02:28:41.932Z,5.40
2018-07-24T02:29:41.932Z,4.40
2018-07-24T02:30:41.947Z,5.30
2018-07-24T02:31:41.965Z,5.10
2018-07-24T02:32:42.014Z,6.60
2018-07-24T02:33:41.952Z,5.10
2018-07-24T02:34:41.972Z,5.10
2018-07-24T02:35:41.968Z,5.10
2018-07-24T02:36:41.979Z,6.10
2018-07-24T02:37:41.977Z,5.80
2018-07-24T02:38:41.988Z,5.20
2018-07-24T02:39:42.008Z,4.70
2018-07-24T02:40:41.996Z,5.00
2018-07-24T02:41:42.008Z,5.70
2018-07-24T02:42:42.011Z,6.40
2018-07-24T02:43:42.024Z,5.70
2018-07-24T02:44:42.021Z,5.50
2018-07-24T02:45:42.034Z,9.50
2018-07-24T02:46:42.045Z,5.30
2018-07-24T02:47:42.050Z,7.30
2018-07-24T02:48:42.050Z,3.90
2018-07-24T02:49:42.057Z,5.90
2018-07-24T02:50:42.070Z,7.20
2018-07-24T02:51:42.075Z,4.40
2018-07-24T02:52:42.077Z,4.90
2018-07-24T02:53:42.123Z,5.20
2018-07-24T02:54:42.111Z,4.80
2018-07-24T02:55:42.098Z,6.50
2018-07-24T02:56:42.103Z,5.70
2018-07-24T02:57:42.108Z,5.30
2018-07-24T02:58:42.113Z,5.20
2018-07-24T02:59:42.114Z,6.10
2018-07-24T03:00:42.643Z,6.70
2018-07-24T03:01:42.129Z,4.90
2018-07-24T03:02:42.177Z,5.10
2018-07-24T03:03:42.186Z,7.70
2018-07-24T03:04:42.149Z,4.90
2018-07-24T03:05:42.148Z,4.70
2018-07-24T03:06:42.157Z,6.70
2018-07-24T03:07:42.166Z,6.50
2018-07-24T03:08:42.170Z,11.10
2018-07-24T03:09:42.182Z,5.70
2018-07-24T03:10:42.188Z,6.20
2018-07-24T03:11:42.190Z,5.20
2018-07-24T03:12:42.194Z,4.70
2018-07-24T03:13:42.203Z,7.40
2018-07-24T03:14:42.255Z,4.80
2018-07-24T03:15:42.209Z,6.00
2018-07-24T03:16:42.219Z,6.40
2018-07-24T03:17:42.222Z,10.70
2018-07-24T03:18:42.227Z,7.20
2018-07-24T03:19:42.245Z,6.30
2018-07-24T03:20:42.242Z,6.20
2018-07-24T03:21:42.247Z,5.60
2018-07-24T03:22:42.248Z,5.90
2018-07-24T03:23:42.265Z,6.80
2018-07-24T03:24:42.262Z,6.30
2018-07-24T03:25:42.273Z,8.00
2018-07-24T03:26:42.282Z,6.20
2018-07-24T03:27:42.281Z,6.80
2018-07-24T03:28:42.291Z,6.60
2018-07-24T03:29:43.147Z,9.00
2018-07-24T03:30:42.305Z,7.20
2018-07-24T03:31:42.311Z,7.60
2018-07-24T03:32:42.318Z,6.10
2018-07-24T03:33:42.326Z,6.70
2018-07-24T03:34:42.338Z,6.10
2018-07-24T03:35:42.327Z,6.90
2018-07-24T03:36:42.347Z,7.30
2018-07-24T03:37:42.342Z,6.80
2018-07-24T03:38:42.351Z,9.90
2018-07-24T03:39:42.406Z,8.00
2018-07-24T03:40:42.360Z,8.40
2018-07-24T03:41:42.369Z,6.90
2018-07-24T03:42:42.369Z,7.70
2018-07-24T03:43:42.380Z,7.10
2018-07-24T03:44:42.385Z,7.40
2018-07-24T03:45:42.382Z,7.50
2018-07-24T03:46:42.398Z,8.60
2018-07-24T03:47:42.394Z,7.40
2018-07-24T03:48:42.405Z,6.50
2018-07-24T03:49:42.419Z,6.80
2018-07-24T03:50:42.417Z,6.30
2018-07-24T03:51:42.443Z,6.70
2018-07-24T03:52:42.445Z,7.00
2018-07-24T03:53:42.434Z,7.90
2018-07-24T03:54:42.441Z,7.00
2018-07-24T03:55:42.445Z,6.70
2018-07-24T03:56:42.520Z,9.20
2018-07-24T03:57:42.459Z,8.10
2018-07-24T03:58:42.538Z,9.00
2018-07-24T03:59:42.473Z,7.20
2018-07-24T04:00:42.486Z,9.90
2018-07-24T04:01:42.485Z,8.90
2018-07-24T04:02:42.487Z,8.30
2018-07-24T04:03:42.500Z,7.60
2018-07-24T04:04:42.496Z,8.30
2018-07-24T04:05:42.510Z,6.60
2018-07-24T04:06:42.519Z,7.60
2018-07-24T04:07:42.512Z,8.30
2018-07-24T04:08:42.534Z,7.80
2018-07-24T04:09:42.522Z,7.20
2018-07-24T04:10:42.546Z,7.20
2018-07-24T04:11:42.552Z,8.90
2018-07-24T04:12:42.538Z,9.10
2018-07-24T04:13:42.556Z,8.80
2018-07-24T04:14:42.561Z,9.00
2018-07-24T04:15:42.560Z,8.60
2018-07-24T04:16:42.570Z,8.60
2018-07-24T04:17:42.568Z,8.10
2018-07-24T04:18:42.576Z,10.60
2018-07-24T04:19:42.579Z,9.80
2018-07-24T04:20:42.588Z,9.10
2018-07-24T04:21:42.605Z,11.00
2018-07-24T04:22:42.609Z,10.80
2018-07-24T04:23:42.608Z,8.60
2018-07-24T04:24:42.617Z,11.50
2018-07-24T04:25:42.622Z,9.80
2018-07-24T04:26:42.625Z,10.50
2018-07-24T04:27:42.642Z,13.50
2018-07-24T04:28:42.639Z,8.90
2018-07-24T04:29:42.650Z,8.60
2018-07-24T04:30:42.674Z,10.10
2018-07-24T04:31:42.657Z,8.90
2018-07-24T04:32:42.668Z,9.50
2018-07-24T04:33:42.679Z,11.90
2018-07-24T04:34:42.687Z,9.20
2018-07-24T04:35:42.689Z,8.90
2018-07-24T04:36:42.693Z,11.00
2018-07-24T04:37:42.705Z,10.80
2018-07-24T04:38:42.709Z,10.20
2018-07-24T04:39:42.722Z,10.20
2018-07-24T04:40:42.729Z,10.70
2018-07-24T04:41:42.733Z,12.30
2018-07-24T04:42:42.737Z,10.30
2018-07-24T04:43:42.740Z,9.10
2018-07-24T04:44:42.756Z,10.10
2018-07-24T04:45:42.763Z,9.60
2018-07-24T04:46:42.761Z,11.70
2018-07-24T04:47:42.777Z,9.50
2018-07-24T04:48:42.784Z,10.20
2018-07-24T04:49:42.786Z,12.20
2018-07-24T04:50:42.811Z,10.60
2018-07-24T04:51:42.795Z,10.60
2018-07-24T04:52:42.802Z,10.40
2018-07-24T04:53:42.820Z,11.40
2018-07-24T04:54:42.814Z,10.90
2018-07-24T04:55:42.833Z,11.50
2018-07-24T04:56:42.828Z,10.10
2018-07-24T04:57:42.837Z,12.00
2018-07-24T04:58:42.843Z,13.30
2018-07-24T04:59:42.855Z,12.70
2018-07-24T05:00:42.863Z,10.70
2018-07-24T05:01:42.866Z,10.40
2018-07-24T05:02:42.897Z,10.70
2018-07-24T05:03:42.884Z,10.10
2018-07-24T05:04:42.888Z,17.30
2018-07-24T05:05:42.946Z,11.60
2018-07-24T05:06:42.904Z,11.80
2018-07-24T05:07:42.916Z,11.50
2018-07-24T05:08:42.917Z,11.80
2018-07-24T05:09:42.922Z,10.00
2018-07-24T05:10:42.929Z,11.10
2018-07-24T05:11:42.930Z,10.30
2018-07-24T05:12:43.692Z,10.40
2018-07-24T05:13:42.946Z,11.80
2018-07-24T05:14:42.949Z,11.70
2018-07-24T05:15:42.955Z,11.90
2018-07-24T05:16:42.985Z,14.50
2018-07-24T05:17:42.972Z,11.30
2018-07-24T05:18:42.976Z,10.30
2018-07-24T05:19:42.991Z,11.80
2018-07-24T05:20:42.991Z,12.70
2018-07-24T05:21:43.118Z,10.50
2018-07-24T05:22:43.011Z,12.60
2018-07-24T05:23:43.009Z,11.70
2018-07-24T05:24:43.031Z,10.80
2018-07-24T05:25:43.060Z,10.30
2018-07-24T05:26:43.029Z,9.70
2018-07-24T05:27:43.043Z,13.90
2018-07-24T05:28:43.041Z,10.20
2018-07-24T05:29:43.056Z,10.70
2018-07-24T05:30:43.055Z,11.40
2018-07-24T05:31:43.063Z,12.00
2018-07-24T05:32:43.074Z,12.70
2018-07-24T05:33:43.076Z,12.00
2018-07-24T05:34:43.087Z,12.20
2018-07-24T05:35:43.101Z,11.10
2018-07-24T05:36:43.102Z,13.20
2018-07-24T05:37:43.111Z,9.50
2018-07-24T05:38:43.125Z,13.10
2018-07-24T05:39:43.129Z,10.90
2018-07-24T05:40:43.133Z,12.10
2018-07-24T05:41:43.143Z,9.30
2018-07-24T05:42:43.155Z,16.10
2018-07-24T05:43:43.182Z,15.20
2018-07-24T05:44:43.174Z,17.60
2018-07-24T05:45:43.185Z,15.50
2018-07-24T05:46:43.190Z,9.90
2018-07-24T05:47:43.197Z,10.50
2018-07-24T05:48:43.293Z,11.50
2018-07-24T05:49:43.225Z,16.50
2018-07-24T05:50:44.195Z,11.00
2018-07-24T05:51:43.254Z,10.70
2018-07-24T05:52:43.255Z,17.10
2018-07-24T05:53:43.271Z,12.00
2018-07-24T05:54:43.277Z,13.00
2018-07-24T05:55:43.291Z,15.50
2018-07-24T05:56:43.303Z,16.60
2018-07-24T05:57:43.312Z,12.50
2018-07-24T05:58:43.334Z,13.40
2018-07-24T05:59:43.345Z,15.00
2018-07-24T06:00:43.357Z,12.70
2018-07-24T06:01:43.366Z,12.00
2018-07-24T06:02:43.379Z,17.00
2018-07-24T06:03:43.393Z,15.10
2018-07-24T06:04:43.412Z,13.40
2018-07-24T06:05:43.474Z,15.20
2018-07-24T06:06:43.434Z,17.90
2018-07-24T06:07:43.453Z,15.50
2018-07-24T06:08:43.481Z,10.70
2018-07-24T06:09:43.480Z,15.50
2018-07-24T06:10:43.488Z,11.10
2018-07-24T06:11:43.512Z,12.40
2018-07-24T06:12:43.521Z,15.70
2018-07-24T06:13:43.544Z,13.30
2018-07-24T06:14:43.564Z,13.30
2018-07-24T06:15:43.568Z,12.80
2018-07-24T06:16:43.627Z,15.30
2018-07-24T06:17:43.601Z,12.60
2018-07-24T06:18:43.614Z,15.00
2018-07-24T06:19:43.629Z,13.10
2018-07-24T06:20:43.641Z,15.80
2018-07-24T06:21:43.695Z,11.10
2018-07-24T06:22:43.682Z,10.60
2018-07-24T06:23:43.790Z,10.80
2018-07-24T06:24:43.709Z,9.90
2018-07-24T06:25:43.730Z,10.50
2018-07-24T06:26:43.746Z,14.40
2018-07-24T06:27:43.766Z,13.10
2018-07-24T06:28:43.773Z,12.40
2018-07-24T06:29:43.800Z,12.50
2018-07-24T06:30:43.811Z,13.40
2018-07-24T06:31:43.835Z,11.70
2018-07-24T06:32:43.843Z,12.60
2018-07-24T06:33:43.874Z,13.80
2018-07-24T06:34:43.883Z,12.30
2018-07-24T06:35:43.907Z,12.10
2018-07-24T06:36:43.917Z,12.10
2018-07-24T06:37:43.932Z,9.90
2018-07-24T06:38:43.954Z,11.10
2018-07-24T06:39:43.996Z,13.70
2018-07-24T06:40:43.998Z,14.80
2018-07-24T06:41:44.011Z,15.70
2018-07-24T06:42:44.026Z,14.60
2018-07-24T06:43:44.050Z,17.10
2018-07-24T06:44:44.090Z,11.60
2018-07-24T06:45:44.092Z,9.00
2018-07-24T06:46:44.721Z,7.60
2018-07-24T06:47:44.121Z,7.90
2018-07-24T06:48:44.159Z,10.90
2018-07-24T06:49:44.171Z,8.40
2018-07-24T06:50:44.181Z,12.40
2018-07-24T06:51:44.383Z,10.70
2018-07-24T06:52:44.218Z,15.00
2018-07-24T06:53:44.242Z,7.70
2018-07-24T06:54:44.263Z,6.50
2018-07-24T06:55:44.276Z,7.50
2018-07-24T06:56:44.343Z,17.90
2018-07-24T06:57:44.322Z,7.80
2018-07-24T06:58:44.335Z,16.20
2018-07-24T06:59:44.365Z,10.90
2018-07-24T07:00:44.378Z,11.10
2018-07-24T07:01:44.401Z,10.40
2018-07-24T07:02:44.426Z,9.10
2018-07-24T07:03:44.438Z,8.70
2018-07-24T07:04:44.464Z,11.10
2018-07-24T07:05:44.481Z,8.10
2018-07-24T07:06:44.502Z,7.30
2018-07-24T07:07:44.568Z,9.60
2018-07-24T07:08:44.541Z,10.50
2018-07-24T07:09:44.568Z,8.90
2018-07-24T07:10:44.590Z,8.30
2018-07-24T07:11:44.609Z,8.30
2018-07-24T07:12:44.635Z,6.80
2018-07-24T07:13:44.645Z,9.70
2018-07-24T07:14:44.672Z,13.60
2018-07-24T07:15:44.688Z,9.50
2018-07-24T07:16:44.711Z,9.30
2018-07-24T07:17:44.730Z,8.00
2018-07-24T07:18:44.759Z,8.20
2018-07-24T07:19:44.778Z,8.80
2018-07-24T07:20:44.808Z,7.00
2018-07-24T07:21:44.816Z,7.10
2018-07-24T07:22:44.841Z,9.50
2018-07-24T07:23:44.863Z,9.80
2018-07-24T07:24:44.885Z,6.60
2018-07-24T07:25:44.907Z,11.40
2018-07-24T07:26:44.932Z,7.30
2018-07-24T07:27:44.949Z,8.70
2018-07-24T07:28:44.971Z,7.50
2018-07-24T07:29:44.990Z,7.30
2018-07-24T07:30:45.016Z,6.80
2018-07-24T07:31:45.035Z,7.90
2018-07-24T07:32:45.064Z,7.00
2018-07-24T07:33:45.077Z,5.30
2018-07-24T07:34:45.109Z,9.60
2018-07-24T07:35:45.122Z,5.60
2018-07-24T07:36:45.153Z,5.80
2018-07-24T07:37:45.167Z,6.80
2018-07-24T07:38:45.197Z,5.50
2018-07-24T07:39:45.213Z,5.10
2018-07-24T07:40:45.253Z,5.30
2018-07-24T07:41:45.266Z,5.90
2018-07-24T07:42:45.279Z,6.30
2018-07-24T07:43:45.311Z,6.00
2018-07-24T07:44:45.334Z,6.00
2018-07-24T07:45:45.356Z,3.80
2018-07-24T07:46:45.389Z,4.50
2018-07-24T07:47:45.398Z,3.60
2018-07-24T07:48:45.419Z,5.80
2018-07-24T07:49:45.452Z,5.70
2018-07-24T07:50:45.479Z,5.00
2018-07-24T07:51:45.499Z,5.50
2018-07-24T07:52:45.517Z,3.90
2018-07-24T07:53:45.537Z,3.60
2018-07-24T07:54:45.561Z,5.70
2018-07-24T07:55:45.599Z,3.00
2018-07-24T07:56:45.608Z,4.30
2018-07-24T07:57:45.640Z,5.20
2018-07-24T07:58:45.676Z,3.20
2018-07-24T07:59:45.684Z,2.90
2018-07-24T08:00:45.701Z,7.40
2018-07-24T08:01:45.738Z,3.30
2018-07-24T08:02:45.753Z,3.20
2018-07-24T08:03:45.778Z,5.20
2018-07-24T08:04:45.805Z,3.20
2018-07-24T08:05:45.826Z,2.90
2018-07-24T08:06:45.848Z,3.30
2018-07-24T08:07:45.876Z,3.00
2018-07-24T08:08:45.903Z,2.80
2018-07-24T08:09:45.922Z,3.10
2018-07-24T08:10:45.944Z,5.00
2018-07-24T08:11:46.096Z,3.40
2018-07-24T08:12:46.057Z,3.10
2018-07-24T08:13:46.280Z,5.10
2018-07-24T08:14:46.140Z,4.50
2018-07-24T08:15:46.141Z,3.90
2018-07-24T08:16:46.110Z,3.60
2018-07-24T08:17:46.358Z,4.00
2018-07-24T08:18:46.143Z,3.50
2018-07-24T08:19:46.160Z,5.50
2018-07-24T08:20:46.308Z,3.40
2018-07-24T08:21:46.298Z,3.40
2018-07-24T08:22:46.258Z,5.40
2018-07-24T08:23:46.265Z,3.90
2018-07-24T08:24:46.289Z,2.80
2018-07-24T08:25:46.380Z,4.20
2018-07-24T08:26:46.335Z,2.50
2018-07-24T08:27:46.535Z,2.50
2018-07-24T08:28:46.399Z,4.50
2018-07-24T08:29:46.456Z,3.30
2018-07-24T08:30:46.438Z,3.00
2018-07-24T08:31:46.460Z,5.10
2018-07-24T08:32:46.476Z,2.90
2018-07-24T08:33:46.511Z,2.40
2018-07-24T08:34:46.526Z,3.20
2018-07-24T08:35:46.623Z,2.80
2018-07-24T08:36:46.581Z,2.40
2018-07-24T08:37:46.607Z,3.30
2018-07-24T08:38:46.635Z,2.90
2018-07-24T08:39:46.698Z,2.30
2018-07-24T08:40:46.700Z,2.30
2018-07-24T08:41:46.706Z,2.20
2018-07-24T08:42:46.734Z,4.70
2018-07-24T08:43:46.750Z,3.50
2018-07-24T08:44:46.796Z,2.20
2018-07-24T08:45:46.813Z,2.50
2018-07-24T08:46:46.838Z,4.80
2018-07-24T08:47:46.859Z,2.50
2018-07-24T08:48:47.838Z,3.50
2018-07-24T08:49:46.900Z,2.40
2018-07-24T08:50:46.927Z,3.20
2018-07-24T08:51:46.956Z,2.50
2018-07-24T08:52:47.070Z,7.30
2018-07-24T08:53:47.501Z,2.40
2018-07-24T08:54:47.215Z,2.80
2018-07-24T08:55:47.424Z,2.60
2018-07-24T08:56:47.077Z,2.30
2018-07-24T08:57:47.181Z,5.10
2018-07-24T08:58:47.131Z,3.20
2018-07-24T08:59:47.158Z,3.80
2018-07-24T09:00:47.184Z,3.10
2018-07-24T09:01:47.206Z,3.90
2018-07-24T09:02:47.232Z,2.50
2018-07-24T09:03:47.276Z,2.90
2018-07-24T09:04:47.286Z,3.90
2018-07-24T09:05:47.311Z,2.40
2018-07-24T09:06:47.331Z,2.50
2018-07-24T09:07:47.379Z,3.90
2018-07-24T09:08:47.387Z,2.60
2018-07-24T09:09:47.413Z,2.60
2018-07-24T09:10:47.443Z,2.60
2018-07-24T09:11:47.552Z,3.80
2018-07-24T09:12:47.484Z,3.20
2018-07-24T09:13:47.514Z,2.60
2018-07-24T09:14:47.556Z,2.60
2018-07-24T09:15:47.609Z,2.40
2018-07-24T09:16:47.583Z,3.70
2018-07-24T09:17:48.254Z,2.50
2018-07-24T09:18:47.633Z,4.00
2018-07-24T09:19:47.665Z,4.40
2018-07-24T09:20:47.714Z,2.50
2018-07-24T09:21:47.708Z,2.30
2018-07-24T09:22:47.748Z,2.10
2018-07-24T09:23:47.772Z,4.70
2018-07-24T09:24:47.791Z,3.30
2018-07-24T09:25:47.823Z,3.20
2018-07-24T09:26:47.837Z,2.40
2018-07-24T09:27:47.863Z,3.90
2018-07-24T09:28:47.884Z,3.10
2018-07-24T09:29:48.012Z,4.50
2018-07-24T09:30:47.937Z,3.60
2018-07-24T09:31:47.967Z,3.70
2018-07-24T09:32:47.989Z,3.90
2018-07-24T09:33:48.009Z,3.70
2018-07-24T09:34:48.039Z,4.40
2018-07-24T09:35:48.071Z,2.60
2018-07-24T09:36:48.085Z,11.40
2018-07-24T09:37:48.119Z,2.60
2018-07-24T09:38:48.147Z,2.40
2018-07-24T09:39:48.170Z,2.10
2018-07-24T09:40:48.195Z,3.90
2018-07-24T09:41:48.216Z,3.20
2018-07-24T09:42:48.234Z,2.40
2018-07-24T09:43:48.260Z,4.80
2018-07-24T09:44:48.301Z,2.70
2018-07-24T09:45:48.340Z,2.40
2018-07-24T09:46:48.342Z,2.30
2018-07-24T09:47:48.365Z,2.40
2018-07-24T09:48:48.391Z,2.70
2018-07-24T09:49:48.419Z,6.40
2018-07-24T09:50:48.436Z,2.80
2018-07-24T09:51:48.469Z,3.30
2018-07-24T09:52:48.493Z,3.00
2018-07-24T09:53:48.511Z,2.40
2018-07-24T09:54:48.541Z,4.30
2018-07-24T09:55:48.566Z,2.30
2018-07-24T09:56:48.590Z,2.30
2018-07-24T09:57:48.618Z,2.60
2018-07-24T09:58:48.656Z,3.40
2018-07-24T09:59:48.662Z,2.20
2018-07-24T10:00:48.695Z,3.50
2018-07-24T10:01:48.717Z,2.40
2018-07-24T10:02:48.775Z,2.20
2018-07-24T10:03:48.760Z,3.60
2018-07-24T10:04:48.792Z,6.10
2018-07-24T10:05:48.822Z,3.30
2018-07-24T10:06:48.833Z,2.50
2018-07-24T10:07:48.867Z,4.70
2018-07-24T10:08:48.909Z,4.80
2018-07-24T10:09:48.916Z,2.90
2018-07-24T10:10:48.947Z,2.90
2018-07-24T10:11:48.965Z,3.40
2018-07-24T10:12:49.119Z,3.90
2018-07-24T10:13:49.007Z,2.30
2018-07-24T10:14:49.039Z,2.60
2018-07-24T10:15:49.063Z,6.70
2018-07-24T10:16:49.109Z,2.30
2018-07-24T10:17:49.116Z,2.30
2018-07-24T10:18:49.161Z,2.40
2018-07-24T10:19:49.162Z,2.50
2018-07-24T10:20:49.185Z,4.40
2018-07-24T10:21:49.222Z,2.40
2018-07-24T10:22:49.238Z,2.40
2018-07-24T10:23:49.265Z,2.80
2018-07-24T10:24:49.293Z,2.90
2018-07-24T10:25:49.307Z,2.10
2018-07-24T10:26:49.343Z,2.60
2018-07-24T10:27:49.359Z,2.40
2018-07-24T10:28:49.388Z,3.40
2018-07-24T10:29:49.417Z,3.10
2018-07-24T10:30:49.447Z,3.40
2018-07-24T10:31:49.463Z,4.10
2018-07-24T10:32:49.478Z,4.10
2018-07-24T10:33:49.511Z,6.10
2018-07-24T10:34:49.543Z,6.10
2018-07-24T10:35:49.553Z,4.50
2018-07-24T10:36:49.579Z,2.20
2018-07-24T10:37:49.607Z,5.40
2018-07-24T10:38:49.625Z,2.30
2018-07-24T10:39:49.659Z,2.50
2018-07-24T10:40:49.687Z,2.60
2018-07-24T10:41:49.706Z,2.30
2018-07-24T10:42:49.725Z,3.30
2018-07-24T10:43:49.746Z,2.80
2018-07-24T10:44:49.773Z,2.50
2018-07-24T10:45:49.797Z,2.40
2018-07-24T10:46:49.855Z,2.70
2018-07-24T10:47:49.847Z,4.60
2018-07-24T10:48:49.870Z,2.40
2018-07-24T10:49:49.888Z,2.50
2018-07-24T10:50:49.920Z,3.60
2018-07-24T10:51:49.962Z,4.10
2018-07-24T10:52:49.987Z,2.70
2018-07-24T10:53:49.991Z,3.90
2018-07-24T10:54:50.005Z,2.70
2018-07-24T10:55:50.040Z,4.40
2018-07-24T10:56:50.059Z,2.60
2018-07-24T10:57:50.090Z,4.80
2018-07-24T10:58:50.112Z,5.20
2018-07-24T10:59:50.127Z,3.60
2018-07-24T11:00:50.157Z,7.20
2018-07-24T11:01:50.175Z,3.10
2018-07-24T11:02:50.205Z,4.30
2018-07-24T11:03:50.227Z,3.30
2018-07-24T11:04:50.255Z,2.30
2018-07-24T11:05:50.281Z,2.60
2018-07-24T11:06:50.299Z,5.50
2018-07-24T11:07:50.318Z,2.50
2018-07-24T11:08:50.345Z,3.40
2018-07-24T11:09:50.366Z,5.60
2018-07-24T11:10:50.427Z,4.00
2018-07-24T11:11:50.421Z,4.50
2018-07-24T11:12:50.441Z,2.60
2018-07-24T11:13:50.461Z,2.30
2018-07-24T11:14:50.491Z,2.40
2018-07-24T11:15:50.528Z,2.30
2018-07-24T11:16:50.531Z,2.60
2018-07-24T11:17:50.559Z,2.90
2018-07-24T11:18:50.624Z,2.80
2018-07-24T11:19:50.607Z,2.60
2018-07-24T11:20:50.614Z,5.30
2018-07-24T11:21:50.645Z,3.50
2018-07-24T11:22:50.948Z,2.40
2018-07-24T11:23:50.697Z,4.70
2018-07-24T11:24:50.709Z,2.80
2018-07-24T11:25:50.739Z,3.40
2018-07-24T11:26:50.757Z,3.90
2018-07-24T11:27:50.782Z,2.60
2018-07-24T11:28:50.829Z,2.30
2018-07-24T11:29:50.912Z,2.80
2018-07-24T11:30:50.859Z,3.50
2018-07-24T11:31:50.920Z,6.90
2018-07-24T11:32:50.936Z,2.40
2018-07-24T11:33:50.915Z,5.10
2018-07-24T11:34:50.939Z,3.40
2018-07-24T11:35:51.083Z,4.00
2018-07-24T11:36:50.979Z,3.40
2018-07-24T11:37:51.027Z,4.70
2018-07-24T11:38:51.025Z,3.40
2018-07-24T11:39:51.042Z,2.90
2018-07-24T11:40:51.061Z,2.40
2018-07-24T11:41:51.089Z,5.00
2018-07-24T11:42:51.103Z,3.30
2018-07-24T11:43:51.132Z,3.30
2018-07-24T11:44:51.158Z,4.40
2018-07-24T11:45:51.165Z,4.00
2018-07-24T11:46:51.189Z,2.70
2018-07-24T11:47:51.222Z,3.70
2018-07-24T11:48:51.231Z,3.80
2018-07-24T11:49:51.255Z,3.70
2018-07-24T11:50:51.275Z,2.80
2018-07-24T11:51:51.354Z,6.00
2018-07-24T11:52:51.339Z,4.80
2018-07-24T11:53:51.341Z,3.30
2018-07-24T11:54:51.362Z,6.10
2018-07-24T11:55:51.375Z,2.30
2018-07-24T11:56:51.400Z,3.30
2018-07-24T11:57:51.497Z,2.30
2018-07-24T11:58:51.441Z,4.70
2018-07-24T11:59:51.465Z,3.70
2018-07-24T12:00:51.488Z,3.80
2018-07-24T12:01:51.498Z,3.30
2018-07-24T12:02:51.527Z,2.40
2018-07-24T12:03:51.535Z,3.90
2018-07-24T12:04:51.604Z,2.70
2018-07-24T12:05:51.570Z,2.90
2018-07-24T12:06:51.604Z,2.80
2018-07-24T12:07:51.656Z,4.80
2018-07-24T12:08:51.640Z,3.90
2018-07-24T12:09:51.650Z,2.60
2018-07-24T12:10:51.676Z,6.90
2018-07-24T12:11:51.683Z,3.10
2018-07-24T12:12:51.752Z,4.60
2018-07-24T12:13:51.745Z,4.40
2018-07-24T12:14:51.767Z,3.50
2018-07-24T12:15:51.759Z,2.50
2018-07-24T12:16:51.787Z,5.60
2018-07-24T12:17:51.796Z,2.70
2018-07-24T12:18:51.811Z,4.50
2018-07-24T12:19:51.827Z,4.10
2018-07-24T12:20:51.841Z,3.60
2018-07-24T12:21:51.859Z,2.30
2018-07-24T12:22:51.874Z,2.90
2018-07-24T12:23:51.893Z,2.60
2018-07-24T12:24:51.906Z,3.90
2018-07-24T12:25:51.942Z,3.20
2018-07-24T12:26:51.941Z,4.40
2018-07-24T12:27:51.963Z,3.30
2018-07-24T12:28:51.973Z,4.40
2018-07-24T12:29:51.982Z,2.70
2018-07-24T12:30:52.008Z,2.80
2018-07-24T12:31:52.011Z,4.30
2018-07-24T12:32:52.034Z,2.60
2018-07-24T12:33:52.046Z,2.90
2018-07-24T12:34:52.066Z,2.50
2018-07-24T12:35:52.197Z,8.80
2018-07-24T12:36:52.090Z,6.20
2018-07-24T12:37:52.109Z,3.60
2018-07-24T12:38:52.133Z,2.90
2018-07-24T12:39:52.133Z,3.00
2018-07-24T12:40:52.159Z,4.50
2018-07-24T12:41:52.172Z,5.90
2018-07-24T12:42:52.191Z,5.70
2018-07-24T12:43:52.207Z,3.70
2018-07-24T12:44:52.208Z,2.90
2018-07-24T12:45:52.246Z,4.80
2018-07-24T12:46:52.282Z,5.00
2018-07-24T12:47:52.265Z,5.10
2018-07-24T12:48:52.391Z,4.20
2018-07-24T12:49:52.281Z,2.80
2018-07-24T12:50:52.299Z,2.60
2018-07-24T12:51:52.326Z,5.50
2018-07-24T12:52:52.328Z,3.10
2018-07-24T12:53:52.356Z,4.10
2018-07-24T12:54:52.366Z,2.50
2018-07-24T12:55:52.377Z,2.80
2018-07-24T12:56:52.389Z,3.60
2018-07-24T12:57:52.438Z,5.90
2018-07-24T12:58:52.413Z,2.50
2018-07-24T12:59:52.445Z,4.60
2018-07-24T13:00:52.448Z,3.20
2018-07-24T13:01:52.459Z,3.20
2018-07-24T13:02:52.477Z,4.20
2018-07-24T13:03:52.483Z,5.40
2018-07-24T13:04:52.502Z,3.90
2018-07-24T13:05:52.525Z,3.00
2018-07-24T13:06:52.533Z,4.20
2018-07-24T13:07:52.559Z,3.60
2018-07-24T13:08:52.565Z,3.30
2018-07-24T13:09:52.591Z,7.00
2018-07-24T13:10:52.629Z,3.20
2018-07-24T13:11:52.617Z,2.80
2018-07-24T13:12:52.617Z,4.80
2018-07-24T13:13:52.623Z,4.40